Weather at Famagusta General Hospital Helipad

Public forecast

Using degrees Celsius for public forecast. Weather courtesy of forecast.io.

Closest aviation weather report (METAR) to Famagusta General Hospital Helipad

Closest report is Larnaca International Airport, 20.4 nm (37.8 km) WSW.

2023/02/05 16:30 (retrieved 34 minutes ago)

LCLK 051630Z VRB01KT 9999 -TSRA FEW020 FEW022CB FEW025TCU BKN037 12/10 Q1004 NOSIG

Closest aviation forecast (TAF) to Famagusta General Hospital Helipad

Closest forecast is Larnaca International Airport, 20.4 nm (37.8 km) WSW.

2023/02/05 12:30 (retrieved 5 hours ago)

TAF LCLK 051130Z 0512/0612 22014KT 9999 FEW020 SCT050 PROB40 TEMPO 0512/0612 4000 SHRA SCT030TCU PROB30 TEMPO 0512/0606 VRB25G35KT 3000 TSRA SCT025CB